createdAt,value
2023-04-19T00:01:17.495Z,99.90
2023-04-19T00:03:44.554Z,99.90
2023-04-19T00:06:14.286Z,99.90
2023-04-19T00:08:44.415Z,99.90
2023-04-19T00:11:11.024Z,99.90
2023-04-19T00:13:38.276Z,99.90
2023-04-19T00:16:05.779Z,99.90
2023-04-19T00:18:32.361Z,99.90
2023-04-19T00:20:58.994Z,99.90
2023-04-19T00:23:25.881Z,99.90
2023-04-19T00:25:52.605Z,99.90
2023-04-19T00:28:19.231Z,99.90
2023-04-19T00:30:45.947Z,99.90
2023-04-19T00:33:12.825Z,99.90
2023-04-19T00:35:42.906Z,99.90
2023-04-19T00:38:09.565Z,99.90
2023-04-19T00:40:38.343Z,99.90
2023-04-19T00:43:05.160Z,99.90
2023-04-19T00:45:35.115Z,99.90
2023-04-19T00:48:01.891Z,99.90
2023-04-19T00:50:28.879Z,99.90
2023-04-19T00:52:57.593Z,99.90
2023-04-19T00:55:25.446Z,99.90
2023-04-19T00:57:52.430Z,99.90
2023-04-19T01:00:19.866Z,99.90
2023-04-19T01:02:47.986Z,99.90
2023-04-19T01:05:15.113Z,99.90
2023-04-19T01:07:42.859Z,99.90
2023-04-19T01:10:10.234Z,99.90
2023-04-19T01:12:37.040Z,99.90
2023-04-19T01:15:04.048Z,99.90
2023-04-19T01:17:33.007Z,99.90
2023-04-19T01:20:01.609Z,99.90
2023-04-19T01:22:29.971Z,99.90
2023-04-19T01:24:57.089Z,99.90
2023-04-19T01:27:24.289Z,99.90
2023-04-19T01:29:51.005Z,99.90
2023-04-19T01:32:17.716Z,99.90
2023-04-19T01:34:44.327Z,99.90
2023-04-19T01:37:10.934Z,99.90
2023-04-19T01:39:37.585Z,99.90
2023-04-19T01:42:04.651Z,99.90
2023-04-19T01:44:31.543Z,99.90
2023-04-19T01:47:00.124Z,99.90
2023-04-19T01:49:26.987Z,99.90
2023-04-19T01:51:54.186Z,99.90
2023-04-19T01:54:20.821Z,99.90
2023-04-19T01:56:49.618Z,99.90
2023-04-19T01:59:16.346Z,99.90
2023-04-19T02:01:43.164Z,99.90
2023-04-19T02:04:09.953Z,99.90
2023-04-19T02:06:36.666Z,99.90
2023-04-19T02:09:04.827Z,99.90
2023-04-19T02:11:31.529Z,99.90
2023-04-19T02:13:58.125Z,99.90
2023-04-19T02:16:27.116Z,99.90
2023-04-19T02:18:54.345Z,99.90
2023-04-19T02:21:21.087Z,99.90
2023-04-19T02:23:47.755Z,99.90
2023-04-19T02:26:14.451Z,99.90
2023-04-19T02:28:43.107Z,99.90
2023-04-19T02:31:09.792Z,99.90
2023-04-19T02:33:36.495Z,99.90
2023-04-19T02:36:03.484Z,99.90
2023-04-19T02:38:30.369Z,99.90
2023-04-19T02:40:57.026Z,99.90
2023-04-19T02:43:23.912Z,99.90
2023-04-19T02:45:51.367Z,99.90
2023-04-19T02:48:18.060Z,99.90
2023-04-19T02:50:44.725Z,99.90
2023-04-19T02:53:11.409Z,99.90
2023-04-19T02:55:38.673Z,99.90
2023-04-19T02:58:14.458Z,99.90
2023-04-19T03:00:50.629Z,99.90
2023-04-19T03:03:20.488Z,99.90
2023-04-19T03:05:47.197Z,99.90
2023-04-19T03:08:14.087Z,99.90
2023-04-19T03:10:41.369Z,99.90
2023-04-19T03:13:09.220Z,99.90
2023-04-19T03:15:35.931Z,99.90
2023-04-19T03:18:03.033Z,99.90
2023-04-19T03:20:29.900Z,99.90
2023-04-19T03:22:57.752Z,99.90
2023-04-19T03:25:25.147Z,99.90
2023-04-19T03:27:59.677Z,99.90
2023-04-19T03:30:49.231Z,99.90
2023-04-19T03:33:16.119Z,99.90
2023-04-19T03:35:44.625Z,99.90
2023-04-19T03:38:11.683Z,99.90
2023-04-19T03:40:38.616Z,99.90
2023-04-19T03:43:06.171Z,99.90
2023-04-19T03:45:34.249Z,99.90
2023-04-19T03:48:02.991Z,99.90
2023-04-19T03:50:30.074Z,99.90
2023-04-19T03:52:57.212Z,99.90
2023-04-19T03:55:23.854Z,99.90
2023-04-19T03:57:50.596Z,99.90
2023-04-19T04:00:23.034Z,99.90
2023-04-19T04:02:55.778Z,99.90
2023-04-19T04:05:22.777Z,99.90
2023-04-19T04:07:49.457Z,99.90
2023-04-19T04:10:16.302Z,99.90
2023-04-19T04:12:43.594Z,99.90
2023-04-19T04:15:14.519Z,99.90
2023-04-19T04:17:46.859Z,99.90
2023-04-19T04:20:13.803Z,99.90
2023-04-19T04:22:42.843Z,99.90
2023-04-19T04:25:11.079Z,99.90
2023-04-19T04:27:39.423Z,99.90
2023-04-19T04:30:11.200Z,99.90
2023-04-19T04:32:38.737Z,99.90
2023-04-19T04:35:06.639Z,99.90
2023-04-19T04:37:40.229Z,99.90
2023-04-19T04:40:08.814Z,99.90
2023-04-19T04:42:35.588Z,99.90
2023-04-19T04:45:03.624Z,99.90
2023-04-19T04:47:32.343Z,99.90
2023-04-19T04:50:02.358Z,99.90
2023-04-19T04:52:30.316Z,99.90
2023-04-19T04:55:06.033Z,99.90
2023-04-19T04:57:35.678Z,99.90
2023-04-19T05:00:06.730Z,99.90
2023-04-19T05:02:41.410Z,99.90
2023-04-19T05:05:11.092Z,99.90
2023-04-19T05:07:37.859Z,99.90
2023-04-19T05:10:04.834Z,99.90
2023-04-19T05:12:41.257Z,99.90
2023-04-19T05:15:08.414Z,99.90
2023-04-19T05:17:37.038Z,99.90
2023-04-19T05:20:05.752Z,99.90
2023-04-19T05:22:33.012Z,99.90
2023-04-19T05:25:00.328Z,99.90
2023-04-19T05:27:26.933Z,99.90
2023-04-19T05:29:54.383Z,99.90
2023-04-19T05:32:22.127Z,99.90
2023-04-19T05:34:55.696Z,99.90
2023-04-19T05:37:24.096Z,99.90
2023-04-19T05:39:50.861Z,99.90
2023-04-19T05:42:18.679Z,99.90
2023-04-19T05:44:45.340Z,99.90
2023-04-19T05:47:12.696Z,99.90
2023-04-19T05:50:04.808Z,99.90
2023-04-19T05:52:35.312Z,99.90
2023-04-19T05:55:03.553Z,99.90
2023-04-19T05:57:32.214Z,99.90
2023-04-19T06:02:40.527Z,99.90
2023-04-19T06:05:11.094Z,99.90
2023-04-19T06:07:43.217Z,99.90
2023-04-19T06:10:17.294Z,99.90
2023-04-19T06:12:44.061Z,99.90
2023-04-19T06:15:11.748Z,99.90
2023-04-19T06:17:38.451Z,99.90
2023-04-19T06:20:07.814Z,99.90
2023-04-19T06:22:34.537Z,99.90
2023-04-19T06:25:01.631Z,99.90
2023-04-19T06:27:28.284Z,99.90
2023-04-19T06:29:55.213Z,99.90
2023-04-19T06:32:21.861Z,99.90
2023-04-19T06:34:48.520Z,99.90
2023-04-19T06:37:15.175Z,99.90
2023-04-19T06:39:41.805Z,99.90
2023-04-19T06:42:08.501Z,99.90
2023-04-19T06:44:35.231Z,99.90
2023-04-19T06:47:01.884Z,99.90
2023-04-19T06:49:28.612Z,99.90
2023-04-19T06:51:55.854Z,99.90
2023-04-19T06:54:22.478Z,99.90
2023-04-19T06:56:50.077Z,99.90
2023-04-19T06:59:19.349Z,99.90
2023-04-19T07:01:47.193Z,99.90
2023-04-19T07:04:15.144Z,99.90
2023-04-19T07:06:42.360Z,99.90
2023-04-19T07:09:09.040Z,99.90
2023-04-19T07:11:35.737Z,99.90
2023-04-19T07:14:02.502Z,99.90
2023-04-19T07:16:29.206Z,99.90
2023-04-19T07:18:56.092Z,99.90
2023-04-19T07:21:25.095Z,99.90
2023-04-19T07:23:51.711Z,99.90
2023-04-19T07:26:18.389Z,99.90
2023-04-19T07:28:45.030Z,99.90
2023-04-19T07:31:16.643Z,99.90
2023-04-19T07:33:43.905Z,99.90
2023-04-19T07:36:11.487Z,99.90
2023-04-19T07:38:38.245Z,99.90
2023-04-19T07:41:05.385Z,99.90
2023-04-19T07:43:32.223Z,99.90
2023-04-19T07:45:58.839Z,99.90
2023-04-19T07:48:25.496Z,99.90
2023-04-19T07:50:52.171Z,99.90
2023-04-19T07:53:19.156Z,99.90
2023-04-19T07:55:45.949Z,99.90
2023-04-19T07:58:12.614Z,99.90
2023-04-19T08:00:39.303Z,99.90
2023-04-19T08:03:06.148Z,99.90
2023-04-19T08:05:34.092Z,99.90
2023-04-19T08:08:00.796Z,99.90
2023-04-19T08:10:28.923Z,99.90
2023-04-19T08:13:04.450Z,99.90
2023-04-19T08:18:05.000Z,99.90
2023-04-19T08:20:32.353Z,99.90
2023-04-19T08:23:04.564Z,99.90
2023-04-19T08:25:37.446Z,99.90
2023-04-19T08:28:05.086Z,99.90
2023-04-19T08:30:32.085Z,99.90
2023-04-19T08:32:58.817Z,99.90
2023-04-19T08:35:25.731Z,99.90
2023-04-19T08:37:52.505Z,99.90
2023-04-19T08:40:19.617Z,99.90
2023-04-19T08:42:46.279Z,99.90
2023-04-19T08:47:58.697Z,99.90
2023-04-19T08:50:34.478Z,99.90
2023-04-19T08:55:54.821Z,99.90
2023-04-19T09:01:00.441Z,99.90
2023-04-19T09:03:27.710Z,99.90
2023-04-19T09:05:55.230Z,99.90
2023-04-19T09:08:22.606Z,99.90
2023-04-19T09:10:57.914Z,99.90
2023-04-19T09:13:25.583Z,99.90
2023-04-19T09:15:53.642Z,99.90
2023-04-19T09:18:20.602Z,99.90
2023-04-19T09:20:47.412Z,99.90
2023-04-19T09:23:19.615Z,99.90
2023-04-19T09:26:22.050Z,99.90
2023-04-19T09:28:57.233Z,99.90
2023-04-19T09:31:43.427Z,99.90
2023-04-19T09:34:18.496Z,99.90
2023-04-19T09:36:46.633Z,99.90
2023-04-19T09:39:14.524Z,99.90
2023-04-19T09:41:54.812Z,99.90
2023-04-19T09:46:53.914Z,99.90
2023-04-19T09:49:33.488Z,99.90
2023-04-19T09:52:10.044Z,99.90
2023-04-19T09:54:37.490Z,99.90
2023-04-19T09:57:04.539Z,99.90
2023-04-19T09:59:31.293Z,99.90
2023-04-19T10:02:00.921Z,99.90
2023-04-19T10:04:38.538Z,99.90
2023-04-19T10:14:48.132Z,99.90
2023-04-19T10:17:16.039Z,99.90
2023-04-19T10:19:44.962Z,99.90
2023-04-19T10:22:12.498Z,99.90
2023-04-19T10:24:39.098Z,99.90
2023-04-19T10:27:13.238Z,99.90
2023-04-19T10:30:00.205Z,99.90
2023-04-19T10:32:28.910Z,99.90
2023-04-19T10:35:00.945Z,99.90
2023-04-19T10:37:27.642Z,99.90
2023-04-19T10:39:54.272Z,99.90
2023-04-19T10:42:21.265Z,99.90
2023-04-19T10:45:25.681Z,99.90
2023-04-19T10:47:52.551Z,99.90
2023-04-19T10:50:19.249Z,99.90
2023-04-19T10:52:46.164Z,99.90
2023-04-19T10:55:16.448Z,99.90
2023-04-19T10:58:02.813Z,99.90
2023-04-19T11:00:32.329Z,99.90
2023-04-19T11:03:43.477Z,99.90
2023-04-19T11:06:22.905Z,99.90
2023-04-19T11:08:49.573Z,99.90
2023-04-19T11:11:16.359Z,99.90
2023-04-19T11:13:43.624Z,99.90
2023-04-19T11:16:10.708Z,99.90
2023-04-19T11:18:37.358Z,99.90
2023-04-19T11:21:04.534Z,99.90
2023-04-19T11:23:31.370Z,99.90
2023-04-19T11:25:58.849Z,99.90
2023-04-19T11:28:26.616Z,99.90
2023-04-19T11:30:54.008Z,99.90
2023-04-19T11:33:25.549Z,99.90
2023-04-19T11:35:52.200Z,99.90
2023-04-19T11:38:18.798Z,99.90
2023-04-19T11:40:45.405Z,99.90
2023-04-19T11:43:12.118Z,99.90
2023-04-19T11:45:40.256Z,99.90
2023-04-19T11:48:17.233Z,99.90
2023-04-19T11:50:45.398Z,99.90
2023-04-19T11:53:13.742Z,99.90
2023-04-19T11:55:43.346Z,99.90
2023-04-19T11:58:23.423Z,99.90
2023-04-19T12:00:50.854Z,99.90
2023-04-19T12:03:24.062Z,99.90
2023-04-19T12:05:59.140Z,99.90
2023-04-19T12:08:33.956Z,99.90
2023-04-19T12:11:01.118Z,99.90
2023-04-19T12:13:27.808Z,99.90
2023-04-19T12:15:54.582Z,99.90
2023-04-19T12:18:21.309Z,99.90
2023-04-19T12:20:50.068Z,99.90
2023-04-19T12:23:18.061Z,99.90
2023-04-19T12:25:46.807Z,99.90
2023-04-19T12:28:15.016Z,99.90
2023-04-19T12:30:42.355Z,99.90
2023-04-19T12:33:09.637Z,99.90
2023-04-19T12:35:37.242Z,99.90
2023-04-19T12:38:04.068Z,99.90
2023-04-19T12:40:31.047Z,99.90
2023-04-19T12:42:58.121Z,99.90
2023-04-19T12:45:26.618Z,99.90
2023-04-19T12:47:53.278Z,99.90
2023-04-19T12:50:19.916Z,99.90
2023-04-19T12:52:46.582Z,99.90
2023-04-19T12:55:13.271Z,99.90
2023-04-19T12:57:39.904Z,99.90
2023-04-19T13:00:07.480Z,99.90
2023-04-19T13:02:35.180Z,99.90
2023-04-19T13:05:03.675Z,99.90
2023-04-19T13:07:31.321Z,99.90
2023-04-19T13:09:58.239Z,99.90
2023-04-19T13:12:25.080Z,99.90
2023-04-19T13:14:52.752Z,99.90
2023-04-19T13:17:20.282Z,99.60
2023-04-19T13:19:47.366Z,99.90
2023-04-19T13:22:14.528Z,98.80
2023-04-19T13:24:41.322Z,99.60
2023-04-19T13:27:09.282Z,98.90
2023-04-19T13:29:36.386Z,98.60
2023-04-19T13:32:03.496Z,98.40
2023-04-19T13:34:30.247Z,98.00
2023-04-19T13:36:57.635Z,98.20
2023-04-19T13:39:24.530Z,97.10
2023-04-19T13:41:51.474Z,98.00
2023-04-19T13:44:18.416Z,95.80
2023-04-19T13:46:45.398Z,95.50
2023-04-19T13:49:12.042Z,95.40
2023-04-19T13:51:48.924Z,96.50
2023-04-19T13:54:17.697Z,96.60
2023-04-19T13:56:44.711Z,94.70
2023-04-19T13:59:11.488Z,94.40
2023-04-19T14:01:39.009Z,94.90
2023-04-19T14:04:05.845Z,96.90
2023-04-19T14:06:32.926Z,95.60
2023-04-19T14:08:59.629Z,96.30
2023-04-19T14:11:26.295Z,96.30
2023-04-19T14:13:53.367Z,96.70
2023-04-19T14:16:20.946Z,95.20
2023-04-19T14:18:47.812Z,95.40
2023-04-19T14:21:14.764Z,96.40
2023-04-19T14:23:41.417Z,95.40
2023-04-19T14:26:08.058Z,96.00
2023-04-19T14:28:34.755Z,95.80
2023-04-19T14:31:01.404Z,96.10
2023-04-19T14:33:28.267Z,97.00
2023-04-19T14:35:54.952Z,96.60
2023-04-19T14:38:21.563Z,96.90
2023-04-19T14:40:48.629Z,97.30
2023-04-19T14:43:16.335Z,97.20
2023-04-19T14:45:43.153Z,96.60
2023-04-19T14:48:09.926Z,96.40
2023-04-19T14:50:36.761Z,96.40
2023-04-19T14:53:03.370Z,97.00
2023-04-19T14:55:30.054Z,96.40
2023-04-19T14:57:56.656Z,97.00
2023-04-19T15:00:23.446Z,97.30
2023-04-19T15:02:50.354Z,98.40
2023-04-19T15:05:17.361Z,98.00
2023-04-19T15:07:44.158Z,97.80
2023-04-19T15:10:10.923Z,98.70
2023-04-19T15:12:37.575Z,98.10
2023-04-19T15:15:05.482Z,98.80
2023-04-19T15:17:32.189Z,98.70
2023-04-19T15:19:59.079Z,99.80
2023-04-19T15:22:25.729Z,98.80
2023-04-19T15:24:52.505Z,99.60
2023-04-19T15:27:19.114Z,99.40
2023-04-19T15:29:48.049Z,99.90
2023-04-19T15:32:14.700Z,99.90
2023-04-19T15:34:41.353Z,99.90
2023-04-19T15:37:08.478Z,99.40
2023-04-19T15:39:35.291Z,99.90
2023-04-19T15:42:01.976Z,99.90
2023-04-19T15:44:28.809Z,99.90
2023-04-19T15:46:56.117Z,99.90
2023-04-19T15:49:22.905Z,99.90
2023-04-19T15:51:49.585Z,99.90
2023-04-19T15:54:16.463Z,99.90
2023-04-19T15:56:43.552Z,99.90
2023-04-19T15:59:10.189Z,99.90
2023-04-19T16:01:36.913Z,99.90
2023-04-19T16:04:03.955Z,99.90
2023-04-19T16:06:30.828Z,99.90
2023-04-19T16:08:57.532Z,99.90
2023-04-19T16:11:24.412Z,99.90
2023-04-19T16:13:54.072Z,99.90
2023-04-19T16:16:21.094Z,99.90
2023-04-19T16:18:47.767Z,99.90
2023-04-19T16:21:14.393Z,99.90
2023-04-19T16:23:41.157Z,99.90
2023-04-19T16:26:08.090Z,99.90
2023-04-19T16:28:34.736Z,99.90
2023-04-19T16:31:01.468Z,99.90
2023-04-19T16:33:28.196Z,99.90
2023-04-19T16:35:54.898Z,99.90
2023-04-19T16:38:21.530Z,99.90
2023-04-19T16:40:49.080Z,99.90
2023-04-19T16:43:15.771Z,99.90
2023-04-19T16:45:42.720Z,99.90
2023-04-19T16:48:10.283Z,99.90
2023-04-19T16:50:36.937Z,99.90
2023-04-19T16:53:03.665Z,99.90
2023-04-19T16:55:30.341Z,99.90
2023-04-19T16:57:57.022Z,99.90
2023-04-19T17:00:23.753Z,99.90
2023-04-19T17:02:51.741Z,99.90
2023-04-19T17:05:19.350Z,99.90
2023-04-19T17:07:46.073Z,99.90
2023-04-19T17:10:13.130Z,99.90
2023-04-19T17:12:39.924Z,99.90
2023-04-19T17:15:06.812Z,99.90
2023-04-19T17:17:33.574Z,99.90
2023-04-19T17:20:02.140Z,99.90
2023-04-19T17:22:28.840Z,99.90
2023-04-19T17:24:57.241Z,99.90
2023-04-19T17:27:23.871Z,99.90
2023-04-19T17:29:50.522Z,99.90
2023-04-19T17:32:17.172Z,99.90
2023-04-19T17:34:44.573Z,99.90
2023-04-19T17:37:11.259Z,99.90
2023-04-19T17:39:37.863Z,99.90
2023-04-19T17:42:04.493Z,99.90
2023-04-19T17:44:31.056Z,99.90
2023-04-19T17:46:58.109Z,99.90
2023-04-19T17:49:26.808Z,99.90
2023-04-19T17:51:55.067Z,99.90
2023-04-19T17:54:21.737Z,99.90
2023-04-19T17:56:48.821Z,99.90
2023-04-19T17:59:15.589Z,99.90
2023-04-19T18:01:42.409Z,99.90
2023-04-19T18:04:09.309Z,99.90
2023-04-19T18:06:36.069Z,99.90
2023-04-19T18:09:02.718Z,99.90
2023-04-19T18:11:29.411Z,99.90
2023-04-19T18:13:56.312Z,99.90
2023-04-19T18:16:23.155Z,99.90
2023-04-19T18:18:50.209Z,99.90
2023-04-19T18:21:18.313Z,99.90
2023-04-19T18:23:44.925Z,99.90
2023-04-19T18:26:11.520Z,99.90
2023-04-19T18:28:39.074Z,99.90
2023-04-19T18:31:08.123Z,99.90
2023-04-19T18:33:35.189Z,99.90
2023-04-19T18:36:01.797Z,99.90
2023-04-19T18:38:28.473Z,99.90
2023-04-19T18:40:55.173Z,99.90
2023-04-19T18:43:21.845Z,99.90
2023-04-19T18:45:56.158Z,99.90
2023-04-19T18:48:27.969Z,99.90
2023-04-19T18:50:55.152Z,99.90
2023-04-19T18:53:21.776Z,99.90
2023-04-19T18:55:48.569Z,99.90
2023-04-19T18:58:15.177Z,99.90
2023-04-19T19:00:41.864Z,99.90
2023-04-19T19:03:21.520Z,99.90
2023-04-19T19:05:55.803Z,99.90
2023-04-19T19:08:22.612Z,99.90
2023-04-19T19:11:14.328Z,99.90
2023-04-19T19:13:36.288Z,99.90
2023-04-19T19:16:05.140Z,99.90
2023-04-19T19:18:32.160Z,99.90
2023-04-19T19:21:00.045Z,99.90
2023-04-19T19:25:58.223Z,99.90
2023-04-19T19:28:25.044Z,99.90
2023-04-19T19:30:51.696Z,99.90
2023-04-19T19:33:18.552Z,99.90
2023-04-19T19:35:45.582Z,99.90
2023-04-19T19:38:12.227Z,99.90
2023-04-19T19:41:04.175Z,99.90
2023-04-19T19:43:25.492Z,99.90
2023-04-19T19:45:52.235Z,99.90
2023-04-19T19:48:18.878Z,99.90
2023-04-19T19:51:17.329Z,99.90
2023-04-19T19:53:32.442Z,99.90
2023-04-19T19:56:00.155Z,99.90
2023-04-19T19:58:48.209Z,99.90
2023-04-19T20:01:13.589Z,99.90
2023-04-19T20:03:40.323Z,99.90
2023-04-19T20:06:45.037Z,99.90
2023-04-19T20:08:58.419Z,99.90
2023-04-19T20:11:25.486Z,99.90
2023-04-19T20:13:52.209Z,99.90
2023-04-19T20:16:19.508Z,99.90
2023-04-19T20:18:48.961Z,99.90
2023-04-19T20:21:16.928Z,99.90
2023-04-19T20:23:43.743Z,99.90
2023-04-19T20:26:10.374Z,99.90
2023-04-19T20:28:37.006Z,99.90
2023-04-19T20:31:03.677Z,99.90
2023-04-19T20:33:30.396Z,99.90
2023-04-19T20:35:59.505Z,99.90
2023-04-19T20:38:29.273Z,99.90
2023-04-19T20:40:56.872Z,99.90
2023-04-19T20:43:23.466Z,99.90
2023-04-19T20:45:50.193Z,99.90
2023-04-19T20:48:17.513Z,99.90
2023-04-19T20:50:44.237Z,99.90
2023-04-19T20:53:11.094Z,99.90
2023-04-19T20:55:38.181Z,99.90
2023-04-19T20:58:05.106Z,99.90
2023-04-19T21:00:31.768Z,99.90
2023-04-19T21:02:58.571Z,99.90
2023-04-19T21:05:25.538Z,99.90
2023-04-19T21:07:52.223Z,99.90
2023-04-19T21:10:19.255Z,99.90
2023-04-19T21:12:46.248Z,99.90
2023-04-19T21:15:12.999Z,99.90
2023-04-19T21:17:40.043Z,99.90
2023-04-19T21:20:12.098Z,99.90
2023-04-19T21:22:43.247Z,99.90
2023-04-19T21:25:11.000Z,99.90
2023-04-19T21:27:38.153Z,99.90
2023-04-19T21:30:06.007Z,99.90
2023-04-19T21:32:33.208Z,99.90
2023-04-19T21:35:00.881Z,99.90
2023-04-19T21:37:28.718Z,99.90
2023-04-19T21:39:55.935Z,99.90
2023-04-19T21:42:22.552Z,99.90
2023-04-19T21:44:49.477Z,99.90
2023-04-19T21:47:16.116Z,99.90
2023-04-19T21:49:42.756Z,99.90
2023-04-19T21:52:09.504Z,99.90
2023-04-19T21:54:36.113Z,99.90
2023-04-19T21:57:02.864Z,99.90
2023-04-19T21:59:30.802Z,99.90
2023-04-19T22:01:58.807Z,99.90
2023-04-19T22:04:26.148Z,99.90
2023-04-19T22:06:53.758Z,99.90
2023-04-19T22:09:20.843Z,99.90
2023-04-19T22:11:47.428Z,99.90
2023-04-19T22:14:14.182Z,99.90
2023-04-19T22:16:42.011Z,99.90
2023-04-19T22:19:08.671Z,99.90
2023-04-19T22:21:35.909Z,99.90
2023-04-19T22:24:03.498Z,99.90
2023-04-19T22:26:30.268Z,99.90
2023-04-19T22:28:56.892Z,99.90
2023-04-19T22:31:23.529Z,99.90
2023-04-19T22:33:50.296Z,99.90
2023-04-19T22:36:17.004Z,99.90
2023-04-19T22:38:43.686Z,99.90
2023-04-19T22:41:10.393Z,99.90
2023-04-19T22:43:37.818Z,99.90
2023-04-19T22:46:04.568Z,99.90
2023-04-19T22:48:31.654Z,99.90
2023-04-19T22:50:59.765Z,99.90
2023-04-19T22:53:26.392Z,99.90
2023-04-19T22:55:52.992Z,99.90
2023-04-19T22:58:19.984Z,99.90
2023-04-19T23:00:46.565Z,99.90
2023-04-19T23:03:13.520Z,99.90
2023-04-19T23:05:41.461Z,99.90
2023-04-19T23:08:09.228Z,99.90
2023-04-19T23:10:38.006Z,99.90
2023-04-19T23:13:05.854Z,99.90
2023-04-19T23:15:32.927Z,99.90
2023-04-19T23:18:02.065Z,99.90
2023-04-19T23:20:30.030Z,99.90
2023-04-19T23:22:57.032Z,99.90
2023-04-19T23:25:24.954Z,99.90
2023-04-19T23:27:51.918Z,99.90
2023-04-19T23:30:19.203Z,99.90
2023-04-19T23:32:45.901Z,99.90
2023-04-19T23:35:12.603Z,99.90
2023-04-19T23:37:39.291Z,99.90
2023-04-19T23:40:06.657Z,99.90
2023-04-19T23:42:33.557Z,99.90
2023-04-19T23:45:00.577Z,99.90
2023-04-19T23:47:27.340Z,99.90
2023-04-19T23:49:53.981Z,99.90
2023-04-19T23:52:22.558Z,99.90
2023-04-19T23:54:49.481Z,99.90
2023-04-19T23:57:16.612Z,99.90
2023-04-19T23:59:43.222Z,99.90
